Time;durP1;ratioP1;P1;durP2;ratioP2;P2;SDS_P1;SDS_P2;PMS_P1;PMS_P2;Temp;Humidity;BMP_temperature;BMP_pressure;BME280_temperature;BME280_humidity;BME280_pressure;Samples;Min_cycle;Max_cycle;Signal;HPM_P1;HPM_P2
2021/08/29 00:01:02;;;;;;;0.50;0.50;;;23.50;49.80;;;;;;5067117;28;20727;-71
2021/08/29 00:03:29;;;;;;;0.65;0.52;;;23.50;49.80;;;;;;5067621;28;20102;-71
2021/08/29 00:05:57;;;;;;;0.40;0.40;;;23.50;49.80;;;;;;5066974;28;20083;-71
2021/08/29 00:08:24;;;;;;;0.45;0.45;;;23.50;49.80;;;;;;5061434;28;20041;-71
2021/08/29 00:10:51;;;;;;;0.40;0.40;;;23.50;49.80;;;;;;5063978;28;20049;-71
2021/08/29 00:13:18;;;;;;;0.30;0.30;;;23.50;49.80;;;;;;5067808;28;20040;-71
2021/08/29 00:15:45;;;;;;;0.47;0.47;;;23.50;49.80;;;;;;5067060;28;20053;-73
2021/08/29 00:18:13;;;;;;;0.43;0.43;;;23.50;49.80;;;;;;5060579;28;20076;-70
2021/08/29 00:20:40;;;;;;;0.30;0.30;;;23.50;49.80;;;;;;5063967;28;20139;-71
2021/08/29 00:23:07;;;;;;;0.50;0.50;;;23.50;49.90;;;;;;5068011;28;20048;-72
2021/08/29 00:25:34;;;;;;;0.47;0.47;;;23.50;49.90;;;;;;5066749;28;20056;-71
2021/08/29 00:28:01;;;;;;;0.63;0.63;;;23.50;49.90;;;;;;5060648;28;20072;-70
2021/08/29 00:30:28;;;;;;;0.68;0.60;;;23.50;49.90;;;;;;5064332;28;20483;-71
2021/08/29 00:32:56;;;;;;;0.40;0.40;;;23.50;49.90;;;;;;5067602;28;20080;-71
2021/08/29 00:35:23;;;;;;;0.40;0.40;;;23.50;49.90;;;;;;5067142;28;20160;-71
2021/08/29 00:37:50;;;;;;;0.75;0.70;;;23.50;49.90;;;;;;5063828;28;20555;-72
2021/08/29 00:40:18;;;;;;;0.40;0.40;;;23.50;49.90;;;;;;5060600;28;20045;-71
2021/08/29 00:42:47;;;;;;;0.45;0.45;;;23.50;49.90;;;;;;5067096;28;20079;-71
2021/08/29 00:45:14;;;;;;;0.40;0.40;;;23.50;50.50;;;;;;5067327;28;20198;-71
2021/08/29 00:47:42;;;;;;;0.40;0.38;;;23.50;49.90;;;;;;5063818;28;20492;-70
2021/08/29 00:50:09;;;;;;;0.30;0.30;;;23.50;49.90;;;;;;5062886;28;20055;-71
2021/08/29 00:52:42;;;;;;;0.52;0.52;;;23.50;49.90;;;;;;5066937;28;20044;-71
2021/08/29 00:55:11;;;;;;;0.40;0.40;;;23.50;49.90;;;;;;5067179;28;20083;-71
2021/08/29 00:57:40;;;;;;;0.30;0.30;;;23.50;50.00;;;;;;5063290;28;20140;-71
2021/08/29 01:00:09;;;;;;;0.30;0.30;;;23.50;49.90;;;;;;5062927;28;20066;-71
2021/08/29 01:02:39;;;;;;;0.50;0.50;;;23.50;49.90;;;;;;5067496;28;20052;-71
2021/08/29 01:05:15;;;;;;;0.40;0.40;;;23.50;49.90;;;;;;5070902;28;20048;-71
2021/08/29 01:08:04;;;;;;;0.40;0.40;;;23.50;49.90;;;;;;5066313;28;20055;-70
2021/08/29 01:10:44;;;;;;;1.02;0.45;;;23.50;49.90;;;;;;5068394;28;20168;-71
2021/08/29 01:13:18;;;;;;;0.57;0.57;;;23.50;49.80;;;;;;5069543;28;20139;-71
2021/08/29 01:15:48;;;;;;;0.30;0.30;;;23.50;49.80;;;;;;5070349;28;20131;-71
2021/08/29 01:18:16;;;;;;;0.47;0.47;;;23.50;49.80;;;;;;5062661;28;21004;-70
2021/08/29 01:21:01;;;;;;;0.50;0.50;;;23.50;49.80;;;;;;5068327;28;20171;-71
2021/08/29 01:23:31;;;;;;;0.40;0.40;;;23.50;49.70;;;;;;5069332;28;20144;-71
2021/08/29 01:26:09;;;;;;;0.28;0.28;;;23.50;49.80;;;;;;5070294;28;20056;-71
2021/08/29 01:28:56;;;;;;;0.50;0.50;;;23.50;49.80;;;;;;5061751;28;20055;-69
2021/08/29 01:31:26;;;;;;;0.40;0.40;;;23.50;49.80;;;;;;5069904;28;20237;-71
2021/08/29 01:33:56;;;;;;;0.30;0.30;;;23.50;49.80;;;;;;5070653;28;20075;-71
2021/08/29 01:36:24;;;;;;;0.40;0.40;;;23.50;49.80;;;;;;5052502;28;20052;-71
2021/08/29 01:38:51;;;;;;;0.38;0.38;;;23.50;49.80;;;;;;5060731;28;20107;-70
2021/08/29 01:41:21;;;;;;;0.47;0.47;;;23.50;49.80;;;;;;5070055;28;20048;-71
2021/08/29 01:43:49;;;;;;;0.70;0.35;;;23.50;49.80;;;;;;5070345;28;20083;-71
2021/08/29 01:46:18;;;;;;;0.30;0.30;;;23.50;49.80;;;;;;5069944;28;20142;-71
2021/08/29 01:48:46;;;;;;;0.40;0.40;;;23.50;49.90;;;;;;5057631;28;20502;-71
2021/08/29 01:51:14;;;;;;;0.30;0.30;;;23.50;49.90;;;;;;5069925;28;20049;-71
2021/08/29 01:53:41;;;;;;;0.68;0.50;;;23.50;49.90;;;;;;5068821;28;20080;-71
2021/08/29 01:56:08;;;;;;;0.40;0.40;;;23.50;49.90;;;;;;5069858;28;20087;-71
2021/08/29 01:58:35;;;;;;;0.32;0.32;;;23.50;49.90;;;;;;5061074;28;20143;-71
2021/08/29 02:01:09;;;;;;;0.52;0.40;;;23.50;49.90;;;;;;5069453;28;20159;-71
2021/08/29 02:03:40;;;;;;;0.40;0.40;;;23.50;49.90;;;;;;5069214;28;20434;-71
2021/08/29 02:06:41;;;;;;;0.55;0.55;;;23.50;49.90;;;;;;5069711;28;20048;-71
2021/08/29 02:09:10;;;;;;;0.30;0.30;;;23.50;49.90;;;;;;5059444;28;20087;-71
2021/08/29 02:11:41;;;;;;;0.20;0.20;;;23.50;49.90;;;;;;5069497;28;20076;-71
2021/08/29 02:14:17;;;;;;;0.80;0.60;;;23.50;49.90;;;;;;5069033;28;20508;-71
2021/08/29 02:16:45;;;;;;;0.20;0.20;;;23.50;49.90;;;;;;5069196;28;20093;-72
2021/08/29 02:19:22;;;;;;;0.38;0.38;;;23.50;49.90;;;;;;5060053;28;20080;-71
2021/08/29 02:21:50;;;;;;;0.20;0.20;;;23.50;49.90;;;;;;5068287;28;20131;-71
2021/08/29 02:24:20;;;;;;;0.52;0.40;;;23.50;49.90;;;;;;5068861;28;20057;-71
2021/08/29 02:26:47;;;;;;;0.40;0.40;;;23.50;49.90;;;;;;5069455;28;20481;-71
2021/08/29 02:29:15;;;;;;;0.20;0.20;;;23.50;50.50;;;;;;5060729;28;20075;-70
2021/08/29 02:31:44;;;;;;;0.30;0.30;;;23.50;49.90;;;;;;5069137;28;20094;-71
2021/08/29 02:34:12;;;;;;;0.20;0.20;;;23.50;49.90;;;;;;5068911;28;20317;-71
2021/08/29 02:36:41;;;;;;;1.90;0.38;;;23.40;49.90;;;;;;5069207;28;20055;-71
2021/08/29 02:39:10;;;;;;;0.30;0.30;;;23.50;49.90;;;;;;5060866;28;20135;-70
2021/08/29 02:41:38;;;;;;;0.20;0.20;;;23.50;49.90;;;;;;5051617;28;20055;-71
2021/08/29 02:44:06;;;;;;;0.43;0.43;;;23.50;50.00;;;;;;5068453;28;20046;-71
2021/08/29 02:46:33;;;;;;;0.22;0.22;;;23.50;49.90;;;;;;5069089;28;20441;-71
2021/08/29 02:49:00;;;;;;;0.20;0.20;;;23.50;49.90;;;;;;5060958;28;20044;-71
2021/08/29 02:51:28;;;;;;;0.55;0.55;;;23.50;49.90;;;;;;5068583;28;20052;-71
2021/08/29 02:53:57;;;;;;;0.50;0.50;;;23.50;50.40;;;;;;5068262;28;20136;-71
2021/08/29 02:56:24;;;;;;;0.47;0.40;;;23.50;49.90;;;;;;5068685;28;20048;-71
2021/08/29 02:58:52;;;;;;;0.20;0.20;;;23.50;49.80;;;;;;5058912;28;20083;-70
2021/08/29 03:01:19;;;;;;;0.30;0.30;;;23.50;49.80;;;;;;5068786;28;20052;-71
2021/08/29 03:03:47;;;;;;;0.32;0.32;;;23.50;49.80;;;;;;5068624;28;20052;-71
2021/08/29 03:06:14;;;;;;;0.40;0.40;;;23.50;49.70;;;;;;5068321;28;20055;-71
2021/08/29 03:08:41;;;;;;;0.30;0.25;;;23.50;49.80;;;;;;5058874;28;20059;-70
2021/08/29 03:11:09;;;;;;;0.20;0.20;;;23.50;49.70;;;;;;5068344;28;20508;-70
2021/08/29 03:13:37;;;;;;;0.65;0.63;;;23.50;49.70;;;;;;5068089;28;20379;-71
2021/08/29 03:16:04;;;;;;;0.20;0.20;;;23.50;49.70;;;;;;5068314;28;20127;-71
2021/08/29 03:18:32;;;;;;;0.30;0.30;;;23.50;49.80;;;;;;5061235;28;20110;-71
2021/08/29 03:20:59;;;;;;;0.30;0.30;;;23.50;49.80;;;;;;5065772;28;20060;-71
2021/08/29 03:23:27;;;;;;;0.20;0.20;;;23.50;49.80;;;;;;5067865;28;20048;-71
2021/08/29 03:25:54;;;;;;;0.47;0.45;;;23.50;49.80;;;;;;5067663;28;20416;-71
2021/08/29 03:28:21;;;;;;;0.63;0.20;;;23.50;49.80;;;;;;5061416;28;20048;-71
2021/08/29 03:30:49;;;;;;;0.30;0.25;;;23.50;49.80;;;;;;5063944;28;20079;-71
2021/08/29 03:33:16;;;;;;;0.20;0.20;;;23.50;49.90;;;;;;5068121;28;20682;-71
2021/08/29 03:35:45;;;;;;;0.40;0.40;;;23.50;49.90;;;;;;5067965;28;20123;-71
2021/08/29 03:38:19;;;;;;;0.20;0.20;;;23.50;49.90;;;;;;5061003;28;20052;-70
2021/08/29 03:40:48;;;;;;;0.40;0.40;;;23.50;49.90;;;;;;5065031;28;20080;-71
2021/08/29 03:43:16;;;;;;;0.32;0.32;;;23.50;49.90;;;;;;5067875;28;20098;-71
2021/08/29 03:45:44;;;;;;;0.38;0.32;;;23.50;49.90;;;;;;5068096;28;20470;-71
2021/08/29 03:48:11;;;;;;;0.35;0.35;;;23.50;49.90;;;;;;5061283;28;20159;-70
2021/08/29 03:50:38;;;;;;;0.35;0.35;;;23.50;49.90;;;;;;5064648;28;20136;-71
2021/08/29 03:53:08;;;;;;;0.60;0.60;;;23.50;49.90;;;;;;5067922;28;20135;-71
2021/08/29 03:55:35;;;;;;;0.50;0.30;;;23.50;49.90;;;;;;5067602;28;20044;-71
2021/08/29 03:58:03;;;;;;;0.30;0.30;;;23.50;49.90;;;;;;5061340;28;20576;-70
2021/08/29 04:00:30;;;;;;;0.38;0.38;;;23.50;49.90;;;;;;5064510;28;20084;-71
2021/08/29 04:02:58;;;;;;;0.22;0.22;;;23.40;49.90;;;;;;5067891;28;20055;-71
2021/08/29 04:05:25;;;;;;;0.20;0.20;;;23.40;49.90;;;;;;5067214;28;20044;-71
2021/08/29 04:07:54;;;;;;;0.28;0.28;;;23.40;49.90;;;;;;5064338;28;20147;-71
2021/08/29 04:10:23;;;;;;;0.20;0.20;;;23.50;49.90;;;;;;5062617;28;20040;-70
2021/08/29 04:12:50;;;;;;;0.20;0.20;;;23.50;49.90;;;;;;5067476;28;20052;-71
2021/08/29 04:15:19;;;;;;;0.80;0.45;;;23.40;49.90;;;;;;5067735;28;20400;-71
2021/08/29 04:17:47;;;;;;;0.30;0.30;;;23.40;49.90;;;;;;5064503;28;20452;-72
2021/08/29 04:20:15;;;;;;;0.47;0.28;;;23.50;49.90;;;;;;5061886;28;20114;-71
2021/08/29 04:22:42;;;;;;;0.40;0.40;;;23.40;49.90;;;;;;5067544;28;20147;-71
2021/08/29 04:25:10;;;;;;;0.32;0.32;;;23.40;49.90;;;;;;5066818;28;20515;-71
2021/08/29 04:27:38;;;;;;;0.20;0.20;;;23.50;49.90;;;;;;5064415;28;20386;-70
2021/08/29 04:30:06;;;;;;;0.25;0.25;;;23.50;49.90;;;;;;5062328;28;20062;-70
2021/08/29 04:32:33;;;;;;;0.75;0.20;;;23.50;49.90;;;;;;5066309;28;20045;-71
2021/08/29 04:35:00;;;;;;;0.38;0.30;;;23.50;49.80;;;;;;5047293;28;20053;-71
2021/08/29 04:37:27;;;;;;;0.98;0.25;;;23.50;49.80;;;;;;5056227;28;20551;-71
2021/08/29 04:39:54;;;;;;;0.30;0.30;;;23.50;49.70;;;;;;5067219;28;20044;-70
2021/08/29 04:42:21;;;;;;;0.47;0.30;;;23.50;49.70;;;;;;5071473;28;20067;-70
2021/08/29 04:44:49;;;;;;;0.17;0.13;;;23.60;49.60;;;;;;5070805;28;20131;-71
2021/08/29 04:47:16;;;;;;;0.30;0.30;;;23.60;49.60;;;;;;5070090;28;20123;-70
2021/08/29 04:49:43;;;;;;;0.28;0.28;;;23.60;49.50;;;;;;5062688;28;20044;-70
2021/08/29 04:52:10;;;;;;;0.30;0.30;;;23.60;49.50;;;;;;5070686;28;20136;-71
2021/08/29 04:54:38;;;;;;;0.20;0.20;;;23.60;49.40;;;;;;5070830;28;20440;-71
2021/08/29 04:57:05;;;;;;;0.20;0.20;;;23.60;49.30;;;;;;5070663;28;20054;-71
2021/08/29 04:59:32;;;;;;;0.40;0.40;;;23.70;49.40;;;;;;5061909;28;20052;-70
2021/08/29 05:01:59;;;;;;;0.20;0.20;;;23.70;49.30;;;;;;5070155;28;20049;-71
2021/08/29 05:04:26;;;;;;;0.30;0.30;;;23.70;49.30;;;;;;5070872;28;20076;-70
2021/08/29 05:06:53;;;;;;;0.30;0.25;;;23.70;49.20;;;;;;5070240;28;20052;-71
2021/08/29 05:09:20;;;;;;;0.40;0.40;;;23.70;49.20;;;;;;5061702;28;20051;-70
2021/08/29 05:11:47;;;;;;;0.22;0.22;;;23.70;49.20;;;;;;5069830;28;20052;-70
2021/08/29 05:14:14;;;;;;;0.35;0.35;;;23.70;49.10;;;;;;5069795;28;20055;-71
2021/08/29 05:16:42;;;;;;;0.20;0.20;;;23.70;49.10;;;;;;5070322;28;20063;-71
2021/08/29 05:19:09;;;;;;;0.50;0.50;;;23.60;49.10;;;;;;5061046;28;20088;-70
2021/08/29 05:21:36;;;;;;;0.93;0.30;;;23.60;49.20;;;;;;5070249;28;20080;-71
2021/08/29 05:24:03;;;;;;;0.30;0.30;;;23.50;49.20;;;;;;5070449;28;20048;-70
2021/08/29 05:26:30;;;;;;;0.40;0.40;;;23.40;49.30;;;;;;5070548;28;20960;-70
2021/08/29 05:28:58;;;;;;;0.40;0.40;;;23.30;49.50;;;;;;5061598;28;21178;-70
2021/08/29 05:31:25;;;;;;;0.30;0.30;;;23.20;49.80;;;;;;5069751;28;20490;-70
2021/08/29 05:33:53;;;;;;;0.38;0.38;;;23.10;50.00;;;;;;5069102;28;20044;-70
2021/08/29 05:36:20;;;;;;;0.30;0.30;;;22.90;50.30;;;;;;5068531;28;20056;-70
2021/08/29 05:38:47;;;;;;;0.30;0.30;;;22.80;50.60;;;;;;5060885;28;20217;-70
2021/08/29 05:41:15;;;;;;;0.40;0.40;;;22.70;50.90;;;;;;5069800;28;20128;-70
2021/08/29 05:43:42;;;;;;;0.30;0.30;;;22.60;51.20;;;;;;5070638;28;20131;-70
2021/08/29 05:46:09;;;;;;;0.47;0.47;;;22.50;51.50;;;;;;5069654;28;20076;-70
2021/08/29 05:48:36;;;;;;;0.30;0.30;;;22.30;51.60;;;;;;5061513;28;20106;-68
2021/08/29 05:51:03;;;;;;;0.30;0.30;;;22.20;51.70;;;;;;5069464;28;20048;-70
2021/08/29 05:53:30;;;;;;;0.47;0.47;;;22.10;52.00;;;;;;5069608;28;20107;-70
2021/08/29 05:55:57;;;;;;;0.50;0.50;;;22.10;52.20;;;;;;5069530;28;20067;-70
2021/08/29 05:58:25;;;;;;;0.40;0.40;;;22.00;52.00;;;;;;5063250;28;20095;-70
2021/08/29 06:00:54;;;;;;;0.20;0.20;;;21.90;52.20;;;;;;5065656;28;20055;-70
2021/08/29 06:03:21;;;;;;;0.30;0.30;;;21.80;52.40;;;;;;5069333;28;20051;-70
2021/08/29 06:05:48;;;;;;;0.20;0.20;;;21.80;52.50;;;;;;5069488;28;20047;-70
2021/08/29 06:08:15;;;;;;;0.20;0.20;;;21.70;52.40;;;;;;5063613;28;20106;-69
2021/08/29 06:10:43;;;;;;;0.20;0.20;;;21.60;52.60;;;;;;5067279;28;20045;-71
2021/08/29 06:13:10;;;;;;;0.22;0.22;;;21.60;52.90;;;;;;5068683;28;20044;-70
2021/08/29 06:15:38;;;;;;;0.40;0.40;;;21.50;53.20;;;;;;5069851;28;20054;-70
2021/08/29 06:18:05;;;;;;;0.28;0.28;;;21.50;53.30;;;;;;5064072;28;20049;-69
2021/08/29 06:20:32;;;;;;;0.30;0.30;;;21.40;53.50;;;;;;5066590;28;20579;-70
2021/08/29 06:22:59;;;;;;;0.57;0.40;;;21.40;53.70;;;;;;5068786;28;20084;-70
2021/08/29 06:25:26;;;;;;;0.60;0.32;;;21.40;53.70;;;;;;5069178;28;20051;-71
2021/08/29 06:27:54;;;;;;;0.30;0.30;;;21.40;53.90;;;;;;5065441;28;20056;-69
2021/08/29 06:30:21;;;;;;;0.75;0.45;;;21.40;54.20;;;;;;5064991;28;20045;-70
2021/08/29 06:32:48;;;;;;;0.20;0.20;;;21.30;54.20;;;;;;5068459;28;20131;-71
2021/08/29 06:35:15;;;;;;;0.43;0.43;;;21.30;54.20;;;;;;5069439;28;20048;-71
2021/08/29 06:37:42;;;;;;;0.40;0.40;;;21.30;54.30;;;;;;5065331;28;20056;-70
2021/08/29 06:40:10;;;;;;;0.35;0.35;;;21.30;54.40;;;;;;5062508;28;20504;-71
2021/08/29 06:42:37;;;;;;;0.75;0.60;;;21.30;54.40;;;;;;5068165;28;20478;-70
2021/08/29 06:45:05;;;;;;;0.30;0.30;;;21.30;54.60;;;;;;5068729;28;20127;-71
2021/08/29 06:47:32;;;;;;;0.38;0.38;;;21.30;54.80;;;;;;5063904;28;20139;-69
2021/08/29 06:49:59;;;;;;;0.43;0.43;;;21.20;54.50;;;;;;5063454;28;20048;-70
2021/08/29 06:52:26;;;;;;;0.40;0.40;;;21.20;54.50;;;;;;5067902;28;20390;-70
2021/08/29 06:54:53;;;;;;;0.45;0.40;;;21.20;54.90;;;;;;5068711;28;20549;-71
2021/08/29 06:57:24;;;;;;;0.55;0.55;;;21.20;54.70;;;;;;5066399;28;20098;-69
2021/08/29 06:59:52;;;;;;;0.32;0.32;;;21.20;54.60;;;;;;5063638;28;20122;-70
2021/08/29 07:02:21;;;;;;;0.55;0.40;;;21.20;55.00;;;;;;5067750;28;20075;-70
2021/08/29 07:04:49;;;;;;;0.60;0.40;;;21.20;55.10;;;;;;5068611;28;20046;-70
2021/08/29 07:07:16;;;;;;;0.65;0.40;;;21.20;54.90;;;;;;5067090;28;20131;-68
2021/08/29 07:09:43;;;;;;;0.43;0.43;;;21.20;55.00;;;;;;5060572;28;20066;-70
2021/08/29 07:12:11;;;;;;;0.28;0.28;;;21.20;55.10;;;;;;5067504;28;20053;-70
2021/08/29 07:14:39;;;;;;;0.30;0.30;;;21.20;55.00;;;;;;5068376;28;20072;-70
2021/08/29 07:17:06;;;;;;;0.35;0.35;;;21.20;54.80;;;;;;5068253;28;20103;-70
2021/08/29 07:19:33;;;;;;;0.40;0.40;;;21.20;55.20;;;;;;5059041;28;20409;-70
2021/08/29 07:22:00;;;;;;;0.40;0.40;;;21.30;55.30;;;;;;5068010;28;20055;-70
2021/08/29 07:24:27;;;;;;;0.60;0.50;;;21.20;54.90;;;;;;5067909;28;20045;-70
2021/08/29 07:26:54;;;;;;;0.40;0.40;;;21.20;55.10;;;;;;5067785;28;20044;-71
2021/08/29 07:29:22;;;;;;;0.32;0.30;;;21.20;55.20;;;;;;5058480;28;20413;-70
2021/08/29 07:31:49;;;;;;;0.45;0.45;;;21.20;54.90;;;;;;5067863;28;20127;-70
2021/08/29 07:34:16;;;;;;;0.30;0.30;;;21.20;54.90;;;;;;5067426;28;20063;-70
2021/08/29 07:36:43;;;;;;;0.40;0.40;;;21.20;55.20;;;;;;5067969;28;20084;-70
2021/08/29 07:39:11;;;;;;;0.47;0.47;;;21.20;55.20;;;;;;5058350;28;20131;-70
2021/08/29 07:41:38;;;;;;;0.50;0.50;;;21.20;55.00;;;;;;5068109;28;20136;-70
2021/08/29 07:44:05;;;;;;;0.43;0.43;;;21.20;55.20;;;;;;5067492;28;20114;-70
2021/08/29 07:46:33;;;;;;;0.47;0.47;;;21.20;55.20;;;;;;5067964;28;20493;-70
2021/08/29 07:49:01;;;;;;;0.40;0.40;;;21.20;55.00;;;;;;5058949;28;20080;-71
2021/08/29 07:51:32;;;;;;;0.50;0.40;;;21.20;55.20;;;;;;5068016;28;20044;-70
2021/08/29 07:53:59;;;;;;;0.30;0.30;;;21.20;55.30;;;;;;5067203;28;20091;-70
2021/08/29 07:56:26;;;;;;;0.28;0.28;;;21.20;55.10;;;;;;5067579;28;20139;-70
2021/08/29 07:58:53;;;;;;;1.63;0.40;;;21.20;55.10;;;;;;5060233;28;20826;-69
2021/08/29 08:01:20;;;;;;;0.40;0.40;;;21.20;55.40;;;;;;5067655;28;20143;-70
2021/08/29 08:03:48;;;;;;;0.30;0.30;;;21.20;55.40;;;;;;5066982;28;20480;-70
2021/08/29 08:06:20;;;;;;;0.68;0.63;;;21.30;55.20;;;;;;5067655;28;20041;-70
2021/08/29 08:08:47;;;;;;;0.98;0.35;;;21.30;55.20;;;;;;5059461;28;20553;-69
2021/08/29 08:11:14;;;;;;;0.30;0.30;;;21.30;55.10;;;;;;5068528;28;20055;-70
2021/08/29 08:13:41;;;;;;;0.30;0.30;;;21.40;55.00;;;;;;5073920;28;20106;-70
2021/08/29 08:16:08;;;;;;;0.50;0.50;;;21.40;54.90;;;;;;5074364;28;20470;-70
2021/08/29 08:18:35;;;;;;;0.30;0.30;;;21.40;55.00;;;;;;5063105;28;20053;-69
2021/08/29 08:21:03;;;;;;;1.30;0.32;;;21.40;55.00;;;;;;5071566;28;20839;-72
2021/08/29 08:23:30;;;;;;;0.50;0.50;;;21.40;54.80;;;;;;5063762;28;20112;-70
2021/08/29 08:25:57;;;;;;;0.32;0.32;;;21.40;55.00;;;;;;5074232;28;20048;-70
2021/08/29 08:28:24;;;;;;;0.50;0.50;;;21.40;55.00;;;;;;5068130;28;20091;-70
2021/08/29 08:30:51;;;;;;;0.30;0.30;;;21.40;54.80;;;;;;5071477;28;20045;-70
2021/08/29 08:33:19;;;;;;;0.50;0.50;;;21.40;55.00;;;;;;5073130;28;20443;-70
2021/08/29 08:35:46;;;;;;;0.30;0.30;;;21.50;54.60;;;;;;5074019;28;20148;-70
2021/08/29 08:38:16;;;;;;;0.55;0.55;;;21.50;54.60;;;;;;5066724;28;20052;-69
2021/08/29 08:40:44;;;;;;;1.20;0.60;;;21.50;54.60;;;;;;5071140;28;20139;-70
2021/08/29 08:43:11;;;;;;;1.70;0.43;;;21.50;54.40;;;;;;5074202;28;20613;-70
2021/08/29 08:45:39;;;;;;;0.35;0.35;;;21.50;54.50;;;;;;5073331;28;20044;-70
2021/08/29 08:48:08;;;;;;;0.50;0.50;;;21.50;54.50;;;;;;5067398;28;20386;-69
2021/08/29 08:50:36;;;;;;;0.47;0.47;;;21.50;54.30;;;;;;5071082;28;20044;-71
2021/08/29 08:53:04;;;;;;;0.50;0.50;;;21.50;54.30;;;;;;5073828;28;20080;-70
2021/08/29 08:55:33;;;;;;;0.32;0.32;;;21.50;54.30;;;;;;5073208;28;20486;-69
2021/08/29 08:58:01;;;;;;;0.52;0.52;;;21.60;54.40;;;;;;5067004;28;20102;-69
2021/08/29 09:00:28;;;;;;;0.40;0.40;;;21.60;54.20;;;;;;5070948;28;20474;-70
2021/08/29 09:02:56;;;;;;;0.88;0.50;;;21.60;54.10;;;;;;5073708;28;20056;-70
2021/08/29 09:05:24;;;;;;;0.50;0.50;;;21.60;54.10;;;;;;5073358;28;20059;-70
2021/08/29 09:07:51;;;;;;;0.45;0.45;;;21.60;54.10;;;;;;5069719;28;20135;-70
2021/08/29 09:10:18;;;;;;;0.40;0.40;;;21.60;54.10;;;;;;5068262;28;20498;-70
2021/08/29 09:12:58;;;;;;;0.52;0.52;;;21.60;54.00;;;;;;5073549;28;20672;-70
2021/08/29 09:15:26;;;;;;;0.57;0.57;;;21.60;53.90;;;;;;5073011;28;20051;-71
2021/08/29 09:17:55;;;;;;;0.30;0.30;;;21.70;53.90;;;;;;5069805;28;20094;-70
2021/08/29 09:20:36;;;;;;;0.47;0.47;;;21.70;53.90;;;;;;5068801;28;20048;-70
2021/08/29 09:23:08;;;;;;;0.40;0.40;;;21.70;53.90;;;;;;5072426;28;20080;-71
2021/08/29 09:25:41;;;;;;;0.60;0.60;;;21.70;53.80;;;;;;5069792;28;20044;-70
2021/08/29 09:28:13;;;;;;;0.57;0.57;;;21.70;53.70;;;;;;5063795;28;20097;-70
2021/08/29 09:30:43;;;;;;;0.57;0.57;;;21.70;53.70;;;;;;5067195;28;20186;-70
2021/08/29 09:33:11;;;;;;;0.60;0.60;;;21.80;53.70;;;;;;5070264;28;20049;-71
2021/08/29 09:35:38;;;;;;;0.60;0.60;;;21.80;53.50;;;;;;5069821;28;20041;-70
2021/08/29 09:38:10;;;;;;;0.40;0.40;;;21.80;53.50;;;;;;5064103;28;20139;-69
2021/08/29 09:40:38;;;;;;;0.57;0.47;;;21.80;53.50;;;;;;5066683;28;20080;-71
2021/08/29 09:43:07;;;;;;;0.45;0.45;;;21.80;54.00;;;;;;5070493;28;20110;-70
2021/08/29 09:45:37;;;;;;;0.73;0.73;;;21.80;53.50;;;;;;5069486;28;20044;-70
2021/08/29 09:48:05;;;;;;;;;;;21.80;53.50;;;;;;5064575;28;20056;-69
2021/08/29 09:50:35;;;;;;;0.40;0.40;;;21.80;53.50;;;;;;5067742;28;19946;-70
2021/08/29 09:53:14;;;;;;;0.40;0.40;;;21.80;53.50;;;;;;5070031;28;20489;-70
2021/08/29 09:55:44;;;;;;;0.50;0.50;;;21.80;53.50;;;;;;5069411;28;20102;-70
2021/08/29 09:58:27;;;;;;;0.40;0.40;;;21.80;53.40;;;;;;5064745;28;20127;-69
2021/08/29 10:01:12;;;;;;;0.60;0.60;;;21.80;53.50;;;;;;5067486;28;20113;-70
2021/08/29 10:03:46;;;;;;;0.65;0.60;;;21.80;53.50;;;;;;5069722;28;20045;-70
2021/08/29 10:06:20;;;;;;;0.35;0.35;;;21.80;53.50;;;;;;5069378;28;20101;-70
2021/08/29 10:08:52;;;;;;;0.43;0.43;;;21.80;53.40;;;;;;5062845;28;20392;-70
2021/08/29 10:11:20;;;;;;;0.50;0.50;;;21.80;53.70;;;;;;5069569;28;20132;-70
2021/08/29 10:13:48;;;;;;;0.63;0.63;;;21.80;53.30;;;;;;5069568;28;20501;-71
2021/08/29 10:16:22;;;;;;;0.60;0.60;;;21.90;53.30;;;;;;5068913;28;20080;-70
2021/08/29 10:18:51;;;;;;;0.60;0.60;;;21.90;53.20;;;;;;5059335;28;20052;-70
2021/08/29 10:21:21;;;;;;;0.40;0.40;;;21.90;53.20;;;;;;5067797;28;20036;-70
2021/08/29 10:23:50;;;;;;;0.68;0.68;;;21.90;53.10;;;;;;5069331;28;20095;-70
2021/08/29 10:26:19;;;;;;;0.50;0.50;;;21.90;53.00;;;;;;5068924;28;20044;-70
2021/08/29 10:28:58;;;;;;;0.50;0.50;;;21.90;53.00;;;;;;5060183;28;20084;-69
2021/08/29 10:31:32;;;;;;;0.40;0.40;;;22.00;52.90;;;;;;5069077;28;20045;-71
2021/08/29 10:34:00;;;;;;;0.60;0.60;;;21.90;52.80;;;;;;5069019;28;20135;-70
2021/08/29 10:36:28;;;;;;;2.05;0.70;;;22.00;52.80;;;;;;5068429;28;20497;-70
2021/08/29 10:38:56;;;;;;;0.45;0.45;;;22.00;52.80;;;;;;5060313;28;20412;-70
2021/08/29 10:41:24;;;;;;;0.45;0.45;;;22.00;52.70;;;;;;5068815;28;20136;-70
2021/08/29 10:43:51;;;;;;;0.80;0.80;;;22.00;52.80;;;;;;5069239;28;20412;-71
2021/08/29 10:46:20;;;;;;;0.55;0.55;;;22.00;52.80;;;;;;5068015;28;20127;-70
2021/08/29 10:48:50;;;;;;;0.57;0.57;;;22.00;52.70;;;;;;5060391;28;20074;-69
2021/08/29 10:51:20;;;;;;;0.60;0.60;;;22.00;52.70;;;;;;5068638;28;20093;-70
2021/08/29 10:53:55;;;;;;;0.70;0.70;;;22.00;52.60;;;;;;5069053;28;20127;-70
2021/08/29 10:56:33;;;;;;;0.57;0.57;;;22.00;52.50;;;;;;5068048;28;20058;-70
2021/08/29 10:59:22;;;;;;;0.40;0.40;;;22.00;52.50;;;;;;5059573;28;20101;-70
2021/08/29 11:01:52;;;;;;;0.50;0.50;;;22.00;52.40;;;;;;5067553;28;20062;-70
2021/08/29 11:04:43;;;;;;;0.50;0.50;;;22.10;52.40;;;;;;5068534;28;20045;-70
2021/08/29 11:07:10;;;;;;;0.57;0.57;;;22.10;52.40;;;;;;5066080;28;20056;-69
2021/08/29 11:09:50;;;;;;;0.50;0.50;;;22.10;52.30;;;;;;5059981;28;20086;-71
2021/08/29 11:12:34;;;;;;;0.55;0.55;;;22.10;52.30;;;;;;5068352;28;20053;-70
2021/08/29 11:15:05;;;;;;;0.57;0.57;;;22.10;52.30;;;;;;5068206;28;20055;-70
2021/08/29 11:17:35;;;;;;;0.75;0.75;;;22.10;52.20;;;;;;5063397;28;20079;-71
2021/08/29 11:20:10;;;;;;;;;;;22.10;52.20;;;;;;5063412;28;20072;-70
2021/08/29 11:22:40;;;;;;;0.70;0.70;;;22.10;52.10;;;;;;5067717;28;19920;-70
2021/08/29 11:25:15;;;;;;;0.73;0.50;;;22.10;52.00;;;;;;5068430;28;20139;-70
2021/08/29 11:27:56;;;;;;;0.82;0.82;;;22.10;52.00;;;;;;5063795;28;20136;-70
2021/08/29 11:30:40;;;;;;;0.60;0.60;;;22.10;52.00;;;;;;5065664;28;20072;-70
2021/08/29 11:33:13;;;;;;;0.73;0.60;;;22.10;52.00;;;;;;5067403;28;20087;-70
2021/08/29 11:35:49;;;;;;;0.68;0.68;;;22.10;52.00;;;;;;5067830;28;20473;-71
2021/08/29 11:38:37;;;;;;;0.65;0.65;;;22.10;52.00;;;;;;5061871;28;20646;-69
2021/08/29 11:41:16;;;;;;;0.68;0.68;;;22.10;52.00;;;;;;5037225;28;20048;-70
2021/08/29 11:43:49;;;;;;;0.57;0.57;;;22.10;51.90;;;;;;5067754;28;20052;-70
2021/08/29 11:46:22;;;;;;;0.50;0.50;;;22.20;51.80;;;;;;5067121;28;20090;-71
2021/08/29 11:48:58;;;;;;;1.77;0.55;;;22.20;51.80;;;;;;5060039;28;20433;-69
2021/08/29 11:51:29;;;;;;;0.52;0.52;;;22.20;51.70;;;;;;5067559;28;20048;-70
2021/08/29 11:53:57;;;;;;;0.70;0.70;;;22.20;51.60;;;;;;5067972;28;20078;-71
2021/08/29 11:56:28;;;;;;;0.70;0.70;;;22.20;51.60;;;;;;5067407;28;20055;-70
2021/08/29 11:58:57;;;;;;;0.60;0.60;;;22.20;51.50;;;;;;5060040;28;20052;-69
2021/08/29 12:01:25;;;;;;;0.80;0.80;;;22.30;51.50;;;;;;5067745;28;20059;-70
2021/08/29 12:04:01;;;;;;;0.60;0.60;;;22.30;51.50;;;;;;5051722;28;20486;-71
2021/08/29 12:06:52;;;;;;;0.43;0.43;;;22.30;51.40;;;;;;5047583;28;20051;-70
2021/08/29 12:09:27;;;;;;;0.57;0.57;;;22.30;51.30;;;;;;5057124;28;20044;-70
2021/08/29 12:11:55;;;;;;;0.73;0.70;;;22.30;51.20;;;;;;5067856;28;20143;-71
2021/08/29 12:14:28;;;;;;;0.50;0.50;;;22.30;51.20;;;;;;5067240;28;20433;-70
2021/08/29 12:17:03;;;;;;;0.45;0.45;;;22.30;51.10;;;;;;5067398;28;20133;-70
2021/08/29 12:19:33;;;;;;;0.88;0.88;;;22.30;51.10;;;;;;5058254;28;20139;-70
2021/08/29 12:22:02;;;;;;;;;;;22.30;51.10;;;;;;5067810;28;20049;-70
2021/08/29 12:24:31;;;;;;;0.57;0.57;;;22.30;51.10;;;;;;5067109;28;19930;-70
2021/08/29 12:27:07;;;;;;;0.73;0.73;;;22.30;51.10;;;;;;5067441;28;20135;-70
2021/08/29 12:29:51;;;;;;;0.70;0.70;;;22.30;51.20;;;;;;5058375;28;20493;-70
2021/08/29 12:32:25;;;;;;;0.93;0.93;;;22.30;51.10;;;;;;5067432;28;20044;-70
2021/08/29 12:34:55;;;;;;;0.50;0.50;;;22.30;51.10;;;;;;5067497;28;20083;-70
2021/08/29 12:37:23;;;;;;;0.85;0.85;;;22.30;51.10;;;;;;5063923;28;20531;-70
2021/08/29 12:40:00;;;;;;;0.93;0.93;;;22.30;51.00;;;;;;5060702;28;20052;-71
2021/08/29 12:42:34;;;;;;;0.50;0.50;;;22.20;51.00;;;;;;5067617;28;20086;-70
2021/08/29 12:45:05;;;;;;;0.50;0.50;;;22.30;51.10;;;;;;5067047;28;20056;-71
2021/08/29 12:47:33;;;;;;;1.02;0.60;;;22.20;51.00;;;;;;5062351;28;20139;-69
2021/08/29 12:50:03;;;;;;;1.00;0.50;;;22.20;51.00;;;;;;5062114;28;20052;-70
2021/08/29 12:52:43;;;;;;;0.80;0.80;;;22.20;51.00;;;;;;5067406;28;20148;-70
2021/08/29 12:55:16;;;;;;;0.60;0.60;;;22.20;51.00;;;;;;5067321;28;20135;-70
2021/08/29 12:57:43;;;;;;;0.68;0.68;;;22.20;51.00;;;;;;5062647;28;20083;-70
2021/08/29 13:00:12;;;;;;;0.85;0.85;;;22.20;51.00;;;;;;5064765;28;20140;-70